createdAt,value
2023-03-05T00:02:06.926Z,8.20
2023-03-05T00:04:33.864Z,8.20
2023-03-05T00:07:00.521Z,8.10
2023-03-05T00:09:27.293Z,8.10
2023-03-05T00:11:53.959Z,8.10
2023-03-05T00:14:20.563Z,8.10
2023-03-05T00:16:47.932Z,8.10
2023-03-05T00:19:14.665Z,8.10
2023-03-05T00:21:42.042Z,8.10
2023-03-05T00:24:13.414Z,8.10
2023-03-05T00:26:40.930Z,8.00
2023-03-05T00:29:09.447Z,8.00
2023-03-05T00:31:37.140Z,8.00
2023-03-05T00:34:06.928Z,8.00
2023-03-05T00:36:34.213Z,8.00
2023-03-05T00:39:01.625Z,8.00
2023-03-05T00:41:28.388Z,8.00
2023-03-05T00:43:55.157Z,8.00
2023-03-05T00:46:22.950Z,8.00
2023-03-05T00:48:50.096Z,8.00
2023-03-05T00:51:16.958Z,8.00
2023-03-05T00:53:43.650Z,8.00
2023-03-05T00:56:10.398Z,8.00
2023-03-05T00:58:37.331Z,8.00
2023-03-05T01:01:04.279Z,8.00
2023-03-05T01:03:32.385Z,8.00
2023-03-05T01:05:59.553Z,7.90
2023-03-05T01:08:26.599Z,7.90
2023-03-05T01:10:53.359Z,7.90
2023-03-05T01:13:20.057Z,7.90
2023-03-05T01:15:48.591Z,7.90
2023-03-05T01:18:15.527Z,7.90
2023-03-05T01:20:42.374Z,7.90
2023-03-05T01:23:09.534Z,7.90
2023-03-05T01:25:36.998Z,7.90
2023-03-05T01:28:04.257Z,7.90
2023-03-05T01:30:32.687Z,7.90
2023-03-05T01:32:59.462Z,7.90
2023-03-05T01:35:26.785Z,7.90
2023-03-05T01:37:54.089Z,7.90
2023-03-05T01:40:29.685Z,7.90
2023-03-05T01:43:13.830Z,7.90
2023-03-05T01:46:30.019Z,7.80
2023-03-05T01:49:10.188Z,7.90
2023-03-05T01:51:59.939Z,7.80
2023-03-05T01:54:35.153Z,7.80
2023-03-05T01:57:09.394Z,7.80
2023-03-05T01:59:39.085Z,7.80
2023-03-05T02:02:07.928Z,7.80
2023-03-05T02:04:58.626Z,7.80
2023-03-05T02:07:26.129Z,7.80
2023-03-05T02:09:52.955Z,7.50
2023-03-05T02:12:19.954Z,7.80
2023-03-05T02:14:49.479Z,7.70
2023-03-05T02:17:16.644Z,7.70
2023-03-05T02:20:08.790Z,7.70
2023-03-05T02:22:35.488Z,7.70
2023-03-05T02:25:02.629Z,7.70
2023-03-05T02:27:35.087Z,7.70
2023-03-05T02:30:02.986Z,7.70
2023-03-05T02:32:29.795Z,7.70
2023-03-05T02:34:56.712Z,7.70
2023-03-05T02:37:23.486Z,7.70
2023-03-05T02:39:51.651Z,7.70
2023-03-05T02:42:18.564Z,7.60
2023-03-05T02:44:45.375Z,7.60
2023-03-05T02:47:12.104Z,7.60
2023-03-05T02:49:38.993Z,7.60
2023-03-05T02:52:06.055Z,7.60
2023-03-05T02:54:32.762Z,7.60
2023-03-05T02:56:59.384Z,7.60
2023-03-05T02:59:27.069Z,7.60
2023-03-05T03:01:54.054Z,7.60
2023-03-05T03:04:20.788Z,7.50
2023-03-05T03:06:47.468Z,7.50
2023-03-05T03:09:14.063Z,7.60
2023-03-05T03:11:40.726Z,7.50
2023-03-05T03:14:10.213Z,7.50
2023-03-05T03:16:36.874Z,7.50
2023-03-05T03:19:03.712Z,7.50
2023-03-05T03:21:30.443Z,7.50
2023-03-05T03:23:57.166Z,7.50
2023-03-05T03:26:23.967Z,7.50
2023-03-05T03:28:50.663Z,7.50
2023-03-05T03:31:17.748Z,7.50
2023-03-05T03:33:44.643Z,7.50
2023-03-05T03:36:11.923Z,7.50
2023-03-05T03:38:38.660Z,7.50
2023-03-05T03:41:09.073Z,7.50
2023-03-05T03:43:36.483Z,7.50
2023-03-05T03:46:09.449Z,7.50
2023-03-05T03:48:36.255Z,7.50
2023-03-05T03:51:07.572Z,7.50
2023-03-05T03:53:34.350Z,7.50
2023-03-05T03:56:01.052Z,7.50
2023-03-05T03:58:27.664Z,7.50
2023-03-05T04:00:54.270Z,7.50
2023-03-05T04:03:20.920Z,7.50
2023-03-05T04:05:47.542Z,7.60
2023-03-05T04:08:14.174Z,7.60
2023-03-05T04:10:41.041Z,7.50
2023-03-05T04:13:07.874Z,7.50
2023-03-05T04:15:34.929Z,7.50
2023-03-05T04:18:01.626Z,7.50
2023-03-05T04:20:28.257Z,7.60
2023-03-05T04:22:54.904Z,7.60
2023-03-05T04:25:21.623Z,7.50
2023-03-05T04:27:50.937Z,7.50
2023-03-05T04:30:17.721Z,7.50
2023-03-05T04:32:44.345Z,7.50
2023-03-05T04:35:11.094Z,7.50
2023-03-05T04:37:37.950Z,7.50
2023-03-05T04:40:05.196Z,7.50
2023-03-05T04:42:31.997Z,7.60
2023-03-05T04:44:58.667Z,7.50
2023-03-05T04:47:25.537Z,7.50
2023-03-05T04:49:52.313Z,7.50
2023-03-05T04:52:18.935Z,7.50
2023-03-05T04:54:45.908Z,7.50
2023-03-05T04:57:12.600Z,7.50
2023-03-05T04:59:39.255Z,7.50
2023-03-05T05:02:06.086Z,7.50
2023-03-05T05:04:33.815Z,7.50
2023-03-05T05:07:00.464Z,7.50
2023-03-05T05:09:27.132Z,7.50
2023-03-05T05:11:54.341Z,7.50
2023-03-05T05:14:21.450Z,7.50
2023-03-05T05:16:48.098Z,7.50
2023-03-05T05:19:14.944Z,7.50
2023-03-05T05:21:41.783Z,7.50
2023-03-05T05:24:08.766Z,7.50
2023-03-05T05:26:35.594Z,7.50
2023-03-05T05:29:02.499Z,7.50
2023-03-05T05:31:29.163Z,7.40
2023-03-05T05:33:56.025Z,7.40
2023-03-05T05:36:22.872Z,7.50
2023-03-05T05:38:49.964Z,7.50
2023-03-05T05:41:18.704Z,7.50
2023-03-05T05:43:46.004Z,7.50
2023-03-05T05:46:15.937Z,7.50
2023-03-05T05:48:43.341Z,7.50
2023-03-05T05:51:15.816Z,7.50
2023-03-05T05:53:43.948Z,7.50
2023-03-05T05:56:12.206Z,7.50
2023-03-05T05:58:40.750Z,7.40
2023-03-05T06:01:18.200Z,7.50
2023-03-05T06:03:44.950Z,7.40
2023-03-05T06:06:13.333Z,7.40
2023-03-05T06:08:40.555Z,7.50
2023-03-05T06:11:07.706Z,7.40
2023-03-05T06:13:34.876Z,7.50
2023-03-05T06:16:04.450Z,7.40
2023-03-05T06:18:31.404Z,7.50
2023-03-05T06:21:06.609Z,7.40
2023-03-05T06:23:33.603Z,7.40
2023-03-05T06:26:02.978Z,7.50
2023-03-05T06:28:30.587Z,7.40
2023-03-05T06:31:08.519Z,7.50
2023-03-05T06:33:36.227Z,7.50
2023-03-05T06:36:08.558Z,7.50
2023-03-05T06:38:35.881Z,7.50
2023-03-05T06:41:09.262Z,7.50
2023-03-05T06:43:41.420Z,7.50
2023-03-05T06:46:09.486Z,7.50
2023-03-05T06:48:36.209Z,7.50
2023-03-05T06:51:03.172Z,7.40
2023-03-05T06:53:29.962Z,7.40
2023-03-05T06:55:56.720Z,7.40
2023-03-05T06:58:23.747Z,7.40
2023-03-05T07:00:50.573Z,7.40
2023-03-05T07:03:17.296Z,7.40
2023-03-05T07:05:44.483Z,7.30
2023-03-05T07:08:11.214Z,7.40
2023-03-05T07:10:40.202Z,7.30
2023-03-05T07:13:08.104Z,7.30
2023-03-05T07:15:37.835Z,7.30
2023-03-05T07:18:04.836Z,7.30
2023-03-05T07:20:33.756Z,7.30
2023-03-05T07:23:00.397Z,7.30
2023-03-05T07:25:27.108Z,7.40
2023-03-05T07:27:53.743Z,7.30
2023-03-05T07:30:20.702Z,7.40
2023-03-05T07:32:47.618Z,7.40
2023-03-05T07:35:14.632Z,7.40
2023-03-05T07:37:41.292Z,7.40
2023-03-05T07:40:10.252Z,7.50
2023-03-05T07:42:36.988Z,7.50
2023-03-05T07:45:13.143Z,7.50
2023-03-05T07:47:39.782Z,7.60
2023-03-05T07:50:06.991Z,7.60
2023-03-05T07:52:33.673Z,7.70
2023-03-05T07:55:00.355Z,7.70
2023-03-05T07:57:27.093Z,7.80
2023-03-05T07:59:54.085Z,7.90
2023-03-05T08:02:21.498Z,7.90
2023-03-05T08:04:48.240Z,8.00
2023-03-05T08:07:16.260Z,8.00
2023-03-05T08:09:43.051Z,8.00
2023-03-05T08:12:10.342Z,8.10
2023-03-05T08:14:37.838Z,8.10
2023-03-05T08:17:05.701Z,8.10
2023-03-05T08:19:32.984Z,8.20
2023-03-05T08:21:59.872Z,8.20
2023-03-05T08:24:29.600Z,8.20
2023-03-05T08:26:57.704Z,8.20
2023-03-05T08:29:27.247Z,8.20
2023-03-05T08:31:53.935Z,8.30
2023-03-05T08:34:21.457Z,8.30
2023-03-05T08:36:48.997Z,8.30
2023-03-05T08:39:15.911Z,8.30
2023-03-05T08:41:42.756Z,8.40
2023-03-05T08:44:09.727Z,8.40
2023-03-05T08:46:38.780Z,8.40
2023-03-05T08:49:07.226Z,8.40
2023-03-05T08:51:35.791Z,8.50
2023-03-05T08:54:06.759Z,8.50
2023-03-05T08:56:34.903Z,8.60
2023-03-05T08:59:02.953Z,8.60
2023-03-05T09:01:31.749Z,8.60
2023-03-05T09:03:59.761Z,8.60
2023-03-05T09:06:27.428Z,8.70
2023-03-05T09:08:54.953Z,8.70
2023-03-05T09:11:21.877Z,8.70
2023-03-05T09:13:48.689Z,8.70
2023-03-05T09:16:17.770Z,8.80
2023-03-05T09:18:44.929Z,8.80
2023-03-05T09:21:14.321Z,8.90
2023-03-05T09:23:41.418Z,8.90
2023-03-05T09:26:10.121Z,9.00
2023-03-05T09:28:36.765Z,9.00
2023-03-05T09:31:08.039Z,9.10
2023-03-05T09:33:35.755Z,9.10
2023-03-05T09:36:03.496Z,9.10
2023-03-05T09:38:30.164Z,9.10
2023-03-05T09:41:07.788Z,9.20
2023-03-05T09:43:47.002Z,9.30
2023-03-05T09:46:32.759Z,9.30
2023-03-05T09:49:14.135Z,9.40
2023-03-05T09:51:42.911Z,9.40
2023-03-05T09:54:23.124Z,9.50
2023-03-05T09:56:59.054Z,9.50
2023-03-05T09:59:31.775Z,9.50
2023-03-05T10:02:17.005Z,9.60
2023-03-05T10:04:59.747Z,9.60
2023-03-05T10:07:34.288Z,9.60
2023-03-05T10:10:02.778Z,9.70
2023-03-05T10:12:42.684Z,9.70
2023-03-05T10:15:14.415Z,9.70
2023-03-05T10:18:09.421Z,9.80
2023-03-05T10:20:42.555Z,9.90
2023-03-05T10:23:09.244Z,10.00
2023-03-05T10:26:13.981Z,10.10
2023-03-05T10:29:03.422Z,10.30
2023-03-05T10:31:44.528Z,10.50
2023-03-05T10:34:55.375Z,10.70
2023-03-05T10:37:57.196Z,10.80
2023-03-05T10:40:32.454Z,11.00
2023-03-05T10:42:59.385Z,11.10
2023-03-05T10:45:38.921Z,11.10
2023-03-05T10:48:27.335Z,11.10
2023-03-05T10:51:00.630Z,11.20
2023-03-05T10:53:33.839Z,11.30
2023-03-05T10:56:05.525Z,11.30
2023-03-05T10:58:32.807Z,11.40
2023-03-05T11:01:10.144Z,11.50
2023-03-05T11:03:53.583Z,11.60
2023-03-05T11:06:27.500Z,11.70
2023-03-05T11:08:54.172Z,11.70
2023-03-05T11:11:22.580Z,11.80
2023-03-05T11:14:02.228Z,11.80
2023-03-05T11:16:35.626Z,11.90
2023-03-05T11:19:24.391Z,11.90
2023-03-05T11:22:15.109Z,11.90
2023-03-05T11:24:42.720Z,11.90
2023-03-05T11:27:31.371Z,11.90
2023-03-05T11:29:59.272Z,12.00
2023-03-05T11:32:28.490Z,11.90
2023-03-05T11:34:56.187Z,11.90
2023-03-05T11:37:25.891Z,12.00
2023-03-05T11:40:10.672Z,12.00
2023-03-05T11:42:40.119Z,12.00
2023-03-05T11:45:14.291Z,12.00
2023-03-05T11:47:53.410Z,12.00
2023-03-05T11:50:23.606Z,12.00
2023-03-05T11:52:58.159Z,12.00
2023-03-05T11:55:27.844Z,12.00
2023-03-05T11:58:21.982Z,12.00
2023-03-05T12:00:48.639Z,11.90
2023-03-05T12:03:18.786Z,11.90
2023-03-05T12:05:50.032Z,11.90
2023-03-05T12:08:25.472Z,11.90
2023-03-05T12:10:53.024Z,11.80
2023-03-05T12:13:34.427Z,11.80
2023-03-05T12:16:39.355Z,11.80
2023-03-05T12:19:18.536Z,11.80
2023-03-05T12:21:50.118Z,11.80
2023-03-05T12:24:28.138Z,11.80
2023-03-05T12:27:04.275Z,11.80
2023-03-05T12:29:51.772Z,11.80
2023-03-05T12:32:33.932Z,11.80
2023-03-05T12:35:26.463Z,11.80
2023-03-05T12:37:53.088Z,11.80
2023-03-05T12:40:28.728Z,11.80
2023-03-05T12:43:04.254Z,11.80
2023-03-05T12:45:33.748Z,11.80
2023-03-05T12:48:00.349Z,11.80
2023-03-05T12:50:27.124Z,11.70
2023-03-05T12:53:07.360Z,11.70
2023-03-05T12:55:51.144Z,11.70
2023-03-05T12:58:30.732Z,11.70
2023-03-05T13:01:15.640Z,11.70
2023-03-05T13:03:54.350Z,11.70
2023-03-05T13:06:34.100Z,11.70
2023-03-05T13:09:24.985Z,11.70
2023-03-05T13:11:53.763Z,11.70
2023-03-05T13:14:23.465Z,11.70
2023-03-05T13:16:50.559Z,11.70
2023-03-05T13:19:17.970Z,11.70
2023-03-05T13:21:44.872Z,11.70
2023-03-05T13:24:19.781Z,11.70
2023-03-05T13:26:46.490Z,11.70
2023-03-05T13:29:17.070Z,11.70
2023-03-05T13:31:48.696Z,11.70
2023-03-05T13:34:24.560Z,11.70
2023-03-05T13:37:14.916Z,11.70
2023-03-05T13:39:47.907Z,11.80
2023-03-05T13:42:34.481Z,11.80
2023-03-05T13:45:04.767Z,11.80
2023-03-05T13:47:36.502Z,11.80
2023-03-05T13:50:08.677Z,11.80
2023-03-05T13:52:39.137Z,11.80
2023-03-05T13:55:16.863Z,11.80
2023-03-05T13:57:52.968Z,11.80
2023-03-05T14:00:36.595Z,11.80
2023-03-05T14:03:11.283Z,11.80
2023-03-05T14:05:44.452Z,11.80
2023-03-05T14:08:23.710Z,11.70
2023-03-05T14:10:51.371Z,11.70
2023-03-05T14:13:28.941Z,11.70
2023-03-05T14:16:10.928Z,11.70
2023-03-05T14:18:38.848Z,11.70
2023-03-05T14:21:08.914Z,11.70
2023-03-05T14:23:37.676Z,11.70
2023-03-05T14:26:28.625Z,11.60
2023-03-05T14:28:58.830Z,11.60
2023-03-05T14:31:26.986Z,11.60
2023-03-05T14:33:54.989Z,11.60
2023-03-05T14:36:26.805Z,11.60
2023-03-05T14:38:54.504Z,11.60
2023-03-05T14:41:38.841Z,11.60
2023-03-05T14:44:17.449Z,11.60
2023-03-05T14:46:48.945Z,11.60
2023-03-05T14:49:16.268Z,11.60
2023-03-05T14:51:45.387Z,11.60
2023-03-05T14:54:23.911Z,11.50
2023-03-05T14:56:51.133Z,11.50
2023-03-05T14:59:18.482Z,11.50
2023-03-05T15:01:45.180Z,11.50
2023-03-05T15:04:11.895Z,11.50
2023-03-05T15:06:41.175Z,11.40
2023-03-05T15:09:08.158Z,11.40
2023-03-05T15:11:35.090Z,11.40
2023-03-05T15:14:01.780Z,11.30
2023-03-05T15:16:28.425Z,11.30
2023-03-05T15:18:55.040Z,11.30
2023-03-05T15:21:21.646Z,11.30
2023-03-05T15:23:48.287Z,11.20
2023-03-05T15:26:15.800Z,11.20
2023-03-05T15:28:43.219Z,11.20
2023-03-05T15:31:10.939Z,11.20
2023-03-05T15:33:37.654Z,11.20
2023-03-05T15:36:04.844Z,11.10
2023-03-05T15:38:31.483Z,11.10
2023-03-05T15:41:00.590Z,11.10
2023-03-05T15:43:28.188Z,11.10
2023-03-05T15:45:54.893Z,11.00
2023-03-05T15:48:21.598Z,11.00
2023-03-05T15:50:48.250Z,11.00
2023-03-05T15:53:18.102Z,10.90
2023-03-05T15:55:45.863Z,10.90
2023-03-05T15:58:15.899Z,10.90
2023-03-05T16:00:42.964Z,10.80
2023-03-05T16:03:09.709Z,10.80
2023-03-05T16:05:37.319Z,10.80
2023-03-05T16:08:04.652Z,10.70
2023-03-05T16:10:31.776Z,10.70
2023-03-05T16:13:12.247Z,10.60
2023-03-05T16:15:40.997Z,10.60
2023-03-05T16:18:15.406Z,10.60
2023-03-05T16:20:42.178Z,10.50
2023-03-05T16:23:08.950Z,10.50
2023-03-05T16:25:36.667Z,10.40
2023-03-05T16:28:03.644Z,10.40
2023-03-05T16:30:30.534Z,10.30
2023-03-05T16:32:57.298Z,10.30
2023-03-05T16:35:24.029Z,10.30
2023-03-05T16:37:50.919Z,10.30
2023-03-05T16:40:17.667Z,10.30
2023-03-05T16:42:44.563Z,10.20
2023-03-05T16:45:12.237Z,10.20
2023-03-05T16:47:39.712Z,10.20
2023-03-05T16:50:08.628Z,10.10
2023-03-05T16:52:35.363Z,10.10
2023-03-05T16:55:02.072Z,10.10
2023-03-05T16:57:28.964Z,10.10
2023-03-05T16:59:56.733Z,10.00
2023-03-05T17:02:24.059Z,10.00
2023-03-05T17:04:50.811Z,10.00
2023-03-05T17:07:18.143Z,10.00
2023-03-05T17:09:45.751Z,9.90
2023-03-05T17:12:12.549Z,9.90
2023-03-05T17:14:39.865Z,9.90
2023-03-05T17:17:06.713Z,9.90
2023-03-05T17:19:33.425Z,9.90
2023-03-05T17:22:00.191Z,9.90
2023-03-05T17:24:26.880Z,9.90
2023-03-05T17:26:53.556Z,9.80
2023-03-05T17:29:21.326Z,9.80
2023-03-05T17:31:50.529Z,9.80
2023-03-05T17:34:18.439Z,9.80
2023-03-05T17:36:47.149Z,9.80
2023-03-05T17:39:13.777Z,9.80
2023-03-05T17:41:40.529Z,9.70
2023-03-05T17:44:07.327Z,9.70
2023-03-05T17:46:34.011Z,9.70
2023-03-05T17:49:00.719Z,9.70
2023-03-05T17:51:27.599Z,9.70
2023-03-05T17:53:54.529Z,9.70
2023-03-05T17:56:22.075Z,9.70
2023-03-05T17:58:49.830Z,9.70
2023-03-05T18:01:28.902Z,9.70
2023-03-05T18:03:55.970Z,9.60
2023-03-05T18:06:23.043Z,9.60
2023-03-05T18:08:49.831Z,9.60
2023-03-05T18:11:16.999Z,9.60
2023-03-05T18:13:43.891Z,9.60
2023-03-05T18:16:12.188Z,9.60
2023-03-05T18:18:38.848Z,9.60
2023-03-05T18:21:05.699Z,9.50
2023-03-05T18:23:32.372Z,9.50
2023-03-05T18:25:59.009Z,9.50
2023-03-05T18:28:25.918Z,9.50
2023-03-05T18:30:52.708Z,9.50
2023-03-05T18:33:22.679Z,9.50
2023-03-05T18:35:52.051Z,9.50
2023-03-05T18:38:20.725Z,9.50
2023-03-05T18:40:47.884Z,9.50
2023-03-05T18:43:14.574Z,9.50
2023-03-05T18:45:41.258Z,9.50
2023-03-05T18:48:07.890Z,9.40
2023-03-05T18:50:34.602Z,9.30
2023-03-05T18:53:01.314Z,9.40
2023-03-05T18:55:30.078Z,9.40
2023-03-05T18:57:57.602Z,9.40
2023-03-05T19:00:27.267Z,9.40
2023-03-05T19:02:54.899Z,9.30
2023-03-05T19:05:22.013Z,9.30
2023-03-05T19:07:49.074Z,9.30
2023-03-05T19:10:17.500Z,9.30
2023-03-05T19:12:57.769Z,9.30
2023-03-05T19:15:24.503Z,9.30
2023-03-05T19:17:51.442Z,9.30
2023-03-05T19:20:18.866Z,9.30
2023-03-05T19:22:45.555Z,9.20
2023-03-05T19:25:12.488Z,9.20
2023-03-05T19:27:39.462Z,9.20
2023-03-05T19:30:07.293Z,9.20
2023-03-05T19:32:34.253Z,9.20
2023-03-05T19:35:01.314Z,9.20
2023-03-05T19:37:28.136Z,9.20
2023-03-05T19:39:54.846Z,9.20
2023-03-05T19:42:21.536Z,9.20
2023-03-05T19:44:48.375Z,9.20
2023-03-05T19:47:15.048Z,9.20
2023-03-05T19:49:41.881Z,9.20
2023-03-05T19:52:08.636Z,9.10
2023-03-05T19:54:35.459Z,9.10
2023-03-05T19:57:02.337Z,9.10
2023-03-05T19:59:29.065Z,9.10
2023-03-05T20:01:57.239Z,9.10
2023-03-05T20:04:24.891Z,9.00
2023-03-05T20:06:51.916Z,9.00
2023-03-05T20:09:18.744Z,9.00
2023-03-05T20:11:46.412Z,9.00
2023-03-05T20:14:14.456Z,9.00
2023-03-05T20:16:43.053Z,9.00
2023-03-05T20:19:16.150Z,9.00
2023-03-05T20:21:42.942Z,9.00
2023-03-05T20:24:13.605Z,9.00
2023-03-05T20:26:41.849Z,9.00
2023-03-05T20:29:08.795Z,9.00
2023-03-05T20:31:37.114Z,8.90
2023-03-05T20:34:10.108Z,8.90
2023-03-05T20:36:37.263Z,8.90
2023-03-05T20:39:05.093Z,8.90
2023-03-05T20:41:33.175Z,8.90
2023-03-05T20:43:59.924Z,8.90
2023-03-05T20:46:32.780Z,8.80
2023-03-05T20:49:01.470Z,8.80
2023-03-05T20:51:36.719Z,8.80
2023-03-05T20:54:09.244Z,8.80
2023-03-05T20:56:36.243Z,8.80
2023-03-05T20:59:06.072Z,8.80
2023-03-05T21:01:34.828Z,8.80
2023-03-05T21:04:02.637Z,8.80
2023-03-05T21:06:30.615Z,8.80
2023-03-05T21:08:57.747Z,8.80
2023-03-05T21:11:24.917Z,8.80
2023-03-05T21:13:51.824Z,8.80
2023-03-05T21:16:22.535Z,8.70
2023-03-05T21:18:51.019Z,8.70
2023-03-05T21:21:17.875Z,8.70
2023-03-05T21:23:44.564Z,8.70
2023-03-05T21:26:12.578Z,8.70
2023-03-05T21:28:40.880Z,8.70
2023-03-05T21:31:10.434Z,8.70
2023-03-05T21:33:37.901Z,8.70
2023-03-05T21:36:05.146Z,8.70
2023-03-05T21:38:33.991Z,8.70
2023-03-05T21:41:01.940Z,8.70
2023-03-05T21:43:31.083Z,8.60
2023-03-05T21:46:00.453Z,8.60
2023-03-05T21:48:27.176Z,8.60
2023-03-05T21:50:55.169Z,8.60
2023-03-05T21:53:22.854Z,8.60
2023-03-05T21:56:02.552Z,8.60
2023-03-05T21:58:34.159Z,8.60
2023-03-05T22:01:01.224Z,8.60
2023-03-05T22:03:28.476Z,8.60
2023-03-05T22:05:56.115Z,8.60
2023-03-05T22:08:23.694Z,8.50
2023-03-05T22:10:50.414Z,8.50
2023-03-05T22:13:17.931Z,8.50
2023-03-05T22:15:56.217Z,8.50
2023-03-05T22:18:28.378Z,8.50
2023-03-05T22:20:56.110Z,8.70
2023-03-05T22:23:25.159Z,8.50
2023-03-05T22:25:59.868Z,8.50
2023-03-05T22:28:27.724Z,8.50
2023-03-05T22:30:54.584Z,8.50
2023-03-05T22:33:23.102Z,8.50
2023-03-05T22:35:50.425Z,8.50
2023-03-05T22:38:17.832Z,8.40
2023-03-05T22:40:46.271Z,8.50
2023-03-05T22:43:14.158Z,8.40
2023-03-05T22:45:41.079Z,8.40
2023-03-05T22:48:09.854Z,8.40
2023-03-05T22:50:41.144Z,8.40
2023-03-05T22:53:08.199Z,8.40
2023-03-05T22:55:38.617Z,8.40
2023-03-05T22:58:05.315Z,8.40
2023-03-05T23:00:33.000Z,8.40
2023-03-05T23:02:59.738Z,8.40
2023-03-05T23:05:26.426Z,8.40
2023-03-05T23:07:53.196Z,8.40
2023-03-05T23:10:25.604Z,8.40
2023-03-05T23:12:54.992Z,8.40
2023-03-05T23:15:30.963Z,8.40
2023-03-05T23:17:58.348Z,8.40
2023-03-05T23:20:28.575Z,8.30
2023-03-05T23:22:56.346Z,8.30
2023-03-05T23:25:25.744Z,8.30
2023-03-05T23:27:52.967Z,8.30
2023-03-05T23:30:30.387Z,8.30
2023-03-05T23:32:59.656Z,8.30
2023-03-05T23:35:35.393Z,8.30
2023-03-05T23:38:05.593Z,8.30
2023-03-05T23:40:47.414Z,8.30
2023-03-05T23:43:15.152Z,8.20
2023-03-05T23:45:43.875Z,8.20
2023-03-05T23:48:10.623Z,8.20
2023-03-05T23:50:40.656Z,8.20
2023-03-05T23:53:07.557Z,8.20
2023-03-05T23:55:44.690Z,8.20
2023-03-05T23:58:11.942Z,8.20
